Time;durP1;ratioP1;P1;durP2;ratioP2;P2;SDS_P1;SDS_P2;PMS_P1;PMS_P2;Temp;Humidity;BMP_temperature;BMP_pressure;BME280_temperature;BME280_humidity;BME280_pressure;Samples;Min_cycle;Max_cycle;Signal;HPM_P1;HPM_P2
2022/04/06 00:00:36;;;;;;;7.65;4.33;;;;;;;6.96;81.06;96986.53;1744803;81;20969;-55
2022/04/06 00:03:05;;;;;;;7.40;4.53;;;;;;;6.98;81.03;96981.11;1744272;80;20998;-56
2022/04/06 00:05:32;;;;;;;6.22;4.37;;;;;;;7.00;81.00;96975.44;1744076;82;20943;-56
2022/04/06 00:07:59;;;;;;;6.50;4.60;;;;;;;7.02;80.94;96974.64;1750662;80;20981;-56
2022/04/06 00:10:26;;;;;;;7.03;4.67;;;;;;;7.02;80.96;96973.29;1747653;80;21430;-56
2022/04/06 00:12:53;;;;;;;5.78;5.12;;;;;;;7.04;80.89;96980.54;1749425;80;21017;-56
2022/04/06 00:15:19;;;;;;;5.35;4.53;;;;;;;7.06;80.86;96977.02;1748869;80;21368;-56
2022/04/06 00:17:47;;;;;;;7.42;6.10;;;;;;;7.11;80.68;96974.84;1744039;82;21615;-56
2022/04/06 00:20:14;;;;;;;8.10;6.08;;;;;;;7.11;80.71;96977.53;1744242;81;21002;-56
2022/04/06 00:22:41;;;;;;;6.45;4.47;;;;;;;7.11;80.64;96978.33;1747603;80;20974;-56
2022/04/06 00:25:09;;;;;;;5.75;4.53;;;;;;;7.11;80.65;96978.33;1751029;80;20955;-56
2022/04/06 00:27:36;;;;;;;5.92;4.50;;;;;;;7.14;80.60;96983.69;1746366;80;21292;-56
2022/04/06 00:30:04;;;;;;;5.87;4.12;;;;;;;7.13;80.56;96984.78;1774347;80;20958;-56
2022/04/06 00:32:31;;;;;;;5.13;4.43;;;;;;;7.11;80.54;96974.29;1774355;80;21398;-56
2022/04/06 00:37:44;;;;;;;6.10;4.22;;;;;;;7.11;80.58;96985.06;1755632;80;21119;-55
2022/04/06 00:40:10;;;;;;;8.33;4.53;;;;;;;7.13;80.50;96981.54;1744337;82;21103;-56
2022/04/06 00:42:37;;;;;;;6.47;4.92;;;;;;;7.13;80.49;96982.89;1744027;81;21038;-56
2022/04/06 00:45:07;;;;;;;5.97;4.33;;;;;;;7.16;80.47;96980.16;1744460;82;21009;-56
2022/04/06 00:47:34;;;;;;;6.87;5.17;;;;;;;7.18;80.41;96982.86;1743896;81;21439;-56
2022/04/06 00:50:01;;;;;;;7.40;5.05;;;;;;;7.20;80.42;96982.56;1744187;82;20970;-56
2022/04/06 00:52:28;;;;;;;7.17;5.17;;;;;;;7.20;80.42;96992.00;1743691;81;21479;-56
2022/04/06 00:54:55;;;;;;;7.47;4.50;;;;;;;7.21;80.40;96992.25;1729189;80;21029;-56
2022/04/06 00:57:22;;;;;;;7.55;3.80;;;;;;;7.24;80.29;96989.78;1774478;80;21415;-56
2022/04/06 00:59:49;;;;;;;7.05;5.05;;;;;;;7.23;80.42;96968.52;1733120;82;21465;-56
2022/04/06 01:02:16;;;;;;;9.50;6.17;;;;;;;7.25;80.38;96970.38;1743535;82;21005;-56
2022/04/06 01:04:43;;;;;;;7.95;5.78;;;;;;;7.23;80.33;96972.56;1744353;80;21644;-56
2022/04/06 01:07:10;;;;;;;6.42;5.42;;;;;;;7.21;80.40;96973.39;1743986;82;20951;-56
2022/04/06 01:09:36;;;;;;;7.50;5.47;;;;;;;7.19;80.51;96978.27;1743735;82;21388;-56
2022/04/06 01:12:05;;;;;;;8.43;6.05;;;;;;;7.17;80.50;96973.14;1744047;82;20946;-56
2022/04/06 01:14:31;;;;;;;7.00;5.80;;;;;;;7.16;80.39;96979.62;1759864;80;21383;-56
2022/04/06 01:17:02;;;;;;;7.10;5.90;;;;;;;7.19;80.44;96966.14;1774558;80;21293;-56
2022/04/06 01:19:35;;;;;;;7.25;5.55;;;;;;;7.14;80.46;96958.09;1762446;80;21044;-56
2022/04/06 01:22:16;;;;;;;6.33;4.92;;;;;;;7.14;80.47;96955.40;1774536;80;20962;-57
2022/04/06 01:24:44;;;;;;;7.53;5.58;;;;;;;7.10;80.68;96953.83;1745317;80;20958;-56
2022/04/06 01:27:11;;;;;;;6.60;5.40;;;;;;;7.10;80.74;96958.41;1744083;82;20978;-56
2022/04/06 01:29:39;;;;;;;5.72;4.60;;;;;;;7.08;80.57;96963.52;1753680;80;21513;-56
2022/04/06 01:32:24;;;;;;;7.25;5.45;;;;;;;7.08;80.60;96968.09;1743902;82;21474;-56
2022/04/06 01:34:56;;;;;;;7.45;5.25;;;;;;;7.05;80.89;96982.94;1751365;81;21030;-56
2022/04/06 01:37:23;;;;;;;6.33;5.20;;;;;;;7.05;80.76;96981.59;1743956;82;20989;-56
2022/04/06 01:39:50;;;;;;;7.20;5.17;;;;;;;7.06;80.54;96989.14;1744321;81;20950;-56
2022/04/06 01:42:19;;;;;;;8.15;5.35;;;;;;;7.10;80.88;96992.09;1744153;82;20955;-56
2022/04/06 01:44:47;;;;;;;6.90;5.17;;;;;;;7.12;81.04;96990.71;1744124;81;21061;-56
2022/04/06 01:47:15;;;;;;;6.05;4.40;;;;;;;7.15;80.87;96996.88;1744249;82;20967;-56
2022/04/06 01:52:28;;;;;;;8.20;6.12;;;;;;;7.16;81.10;96990.94;1773834;80;21466;-57
2022/04/06 01:55:00;;;;;;;7.50;5.58;;;;;;;7.19;80.93;96994.44;1744372;81;21400;-57
2022/04/06 01:57:26;;;;;;;9.18;5.42;;;;;;;7.22;80.96;96989.27;1743784;81;20978;-56
2022/04/06 01:59:53;;;;;;;6.87;5.55;;;;;;;7.23;81.04;96990.87;1764614;80;21001;-57
2022/04/06 02:02:21;;;;;;;8.98;5.95;;;;;;;7.26;81.09;96989.50;1774759;80;21041;-57
2022/04/06 02:04:48;;;;;;;7.95;5.85;;;;;;;7.28;81.01;96990.05;1774451;80;20938;-56
2022/04/06 02:07:15;;;;;;;10.45;7.40;;;;;;;7.29;80.99;96986.26;1774724;80;22000;-56
2022/04/06 02:09:42;;;;;;;6.28;4.78;;;;;;;7.29;80.97;96982.21;1764256;80;21005;-56
2022/04/06 02:12:10;;;;;;;5.20;4.08;;;;;;;7.29;80.77;96980.32;1774652;80;20966;-56
2022/04/06 02:14:41;;;;;;;7.58;5.65;;;;;;;7.29;80.95;96976.28;1763858;80;21551;-57
2022/04/06 02:17:08;;;;;;;5.75;4.62;;;;;;;7.29;81.04;96981.67;1757113;80;20965;-57
2022/04/06 02:19:36;;;;;;;6.03;4.65;;;;;;;7.31;80.90;96982.18;1770837;80;21126;-56
2022/04/06 02:22:07;;;;;;;6.58;5.17;;;;;;;7.31;81.19;96986.77;1774718;80;20950;-56
2022/04/06 02:24:33;;;;;;;6.33;4.10;;;;;;;7.31;81.01;96988.92;1747276;80;21069;-56
2022/04/06 02:27:00;;;;;;;5.92;4.80;;;;;;;7.32;80.92;96987.03;1744139;82;21066;-56
2022/04/06 02:29:27;;;;;;;7.12;5.20;;;;;;;7.31;81.33;96988.92;1758896;80;20997;-56
2022/04/06 02:31:54;;;;;;;6.15;5.17;;;;;;;7.33;81.28;96981.89;1774664;80;22168;-56
2022/04/06 02:34:21;;;;;;;6.45;5.25;;;;;;;7.33;81.23;96977.85;1749702;80;20979;-56
2022/04/06 02:36:48;;;;;;;6.17;4.83;;;;;;;7.34;81.16;96976.22;1744032;82;21015;-57
2022/04/06 02:39:15;;;;;;;6.78;4.85;;;;;;;7.34;81.22;96964.62;1743839;82;21070;-56
2022/04/06 02:41:42;;;;;;;6.35;5.03;;;;;;;7.32;81.58;96966.81;1744042;82;20963;-56
2022/04/06 02:44:09;;;;;;;6.03;5.00;;;;;;;7.35;81.42;96971.66;1743786;81;22085;-56
2022/04/06 02:46:36;;;;;;;6.45;4.95;;;;;;;7.37;81.43;96976.21;1744000;82;21038;-56
2022/04/06 02:49:04;;;;;;;7.03;5.97;;;;;;;7.37;81.42;96970.82;1744150;81;21034;-56
2022/04/06 02:51:32;;;;;;;6.97;5.17;;;;;;;7.38;81.48;96969.73;1744416;80;21014;-56
2022/04/06 02:53:59;;;;;;;6.12;5.45;;;;;;;7.40;81.42;96969.44;1754274;80;20985;-56
2022/04/06 02:56:26;;;;;;;6.87;5.00;;;;;;;7.40;81.47;96969.44;1774606;80;21445;-56
2022/04/06 02:58:54;;;;;;;8.30;4.72;;;;;;;7.42;81.62;96958.63;1709456;83;20955;-56
2022/04/06 03:01:21;;;;;;;7.97;5.78;;;;;;;7.44;81.43;96963.21;1780254;80;20957;-57
2022/04/06 03:03:48;;;;;;;5.65;5.08;;;;;;;7.45;81.59;96944.59;1760044;80;20963;-56
2022/04/06 03:06:16;;;;;;;8.93;5.78;;;;;;;7.49;81.39;96961.80;1744179;82;21616;-56
2022/04/06 03:08:43;;;;;;;7.87;5.90;;;;;;;7.49;81.30;96964.48;1744739;80;21780;-56
2022/04/06 03:11:10;;;;;;;8.03;6.17;;;;;;;7.47;81.37;96972.61;1743825;82;20966;-56
2022/04/06 03:13:37;;;;;;;6.80;5.25;;;;;;;7.48;81.32;96963.44;1743866;81;21057;-56
2022/04/06 03:16:05;;;;;;;4.97;4.45;;;;;;;7.45;81.25;96972.90;1743806;82;20982;-56
2022/04/06 03:18:32;;;;;;;7.40;5.90;;;;;;;7.44;81.16;96972.64;1743914;81;20979;-56
2022/04/06 03:20:59;;;;;;;6.42;4.75;;;;;;;7.44;81.27;96967.80;1744028;82;21430;-56
2022/04/06 03:23:26;;;;;;;6.12;5.12;;;;;;;7.46;81.29;96967.77;1743648;82;20979;-55
2022/04/06 03:25:53;;;;;;;4.03;2.95;;;;;;;7.44;81.31;96971.30;1743760;82;21411;-56
2022/04/06 03:28:20;;;;;;;5.55;4.50;;;;;;;7.47;81.37;96972.61;1743488;81;21087;-56
2022/04/06 03:30:47;;;;;;;5.83;4.92;;;;;;;7.44;81.43;96975.89;1744134;82;21006;-56
2022/04/06 03:33:15;;;;;;;6.67;5.15;;;;;;;7.48;81.37;96967.47;1743580;81;21061;-56
2022/04/06 03:35:42;;;;;;;6.42;5.05;;;;;;;7.45;81.48;96972.90;1744173;82;20946;-56
2022/04/06 03:38:09;;;;;;;5.10;4.60;;;;;;;7.43;81.45;96980.98;1775511;80;20951;-56
2022/04/06 03:40:36;;;;;;;7.92;5.53;;;;;;;7.42;81.42;96980.19;1774631;80;21037;-56
2022/04/06 03:43:02;;;;;;;7.40;5.05;;;;;;;7.41;81.28;96989.36;1767174;80;20958;-56
2022/04/06 03:45:29;;;;;;;6.87;5.65;;;;;;;7.39;81.59;96987.50;1743984;81;21751;-56
2022/04/06 03:47:56;;;;;;;5.03;4.45;;;;;;;7.38;81.49;96996.69;1743600;81;20950;-56
2022/04/06 03:50:23;;;;;;;4.80;3.95;;;;;;;7.37;81.55;96993.73;1743978;81;20966;-56
2022/04/06 03:52:50;;;;;;;8.45;6.80;;;;;;;7.38;81.72;96996.69;1743725;81;21062;-57
2022/04/06 03:55:17;;;;;;;7.20;5.75;;;;;;;7.38;81.50;96989.94;1743877;82;21022;-56
2022/04/06 03:57:44;;;;;;;8.68;5.12;;;;;;;7.39;81.60;96994.24;1743632;81;21578;-56
2022/04/06 04:00:12;;;;;;;8.13;5.85;;;;;;;7.40;81.42;97002.59;1743875;82;20999;-56
2022/04/06 04:02:39;;;;;;;8.05;5.15;;;;;;;7.39;81.59;97007.72;1746150;80;21466;-56
2022/04/06 04:05:08;;;;;;;6.87;3.65;;;;;;;7.35;81.65;97009.39;1751286;80;21448;-56
2022/04/06 04:07:37;;;;;;;6.22;4.92;;;;;;;7.37;81.67;97011.25;1743897;82;21009;-56
2022/04/06 04:10:06;;;;;;;7.35;4.83;;;;;;;7.33;81.69;97019.63;1743893;82;27489;-56
2022/04/06 04:12:34;;;;;;;6.53;5.00;;;;;;;7.30;81.77;97010.22;1743593;81;21003;-56
2022/04/06 04:15:01;;;;;;;16.00;14.33;;;;;;;7.30;81.80;96998.64;1744020;82;20974;-56
2022/04/06 04:17:28;;;;;;;7.00;5.65;;;;;;;7.29;81.74;97009.16;1743758;82;20959;-56
2022/04/06 04:19:55;;;;;;;8.15;6.05;;;;;;;7.29;81.96;97015.90;1744230;82;20975;-56
2022/04/06 04:22:22;;;;;;;10.08;6.15;;;;;;;7.29;81.77;97014.55;1743899;82;21700;-56
2022/04/06 04:24:49;;;;;;;6.10;5.45;;;;;;;7.30;82.04;97017.50;1743912;82;20951;-56
2022/04/06 04:27:16;;;;;;;6.58;5.75;;;;;;;7.32;82.02;97016.67;1743932;82;21058;-56
2022/04/06 04:29:43;;;;;;;8.90;7.78;;;;;;;7.34;81.82;97029.31;1744063;80;21073;-56
2022/04/06 04:32:10;;;;;;;68.78;31.95;;;;;;;7.36;81.92;97023.12;1767503;80;21441;-56
2022/04/06 04:34:38;;;;;;;14.03;8.18;;;;;;;7.35;81.90;97017.47;1763758;80;21399;-56
2022/04/06 04:37:05;;;;;;;12.88;10.58;;;;;;;7.35;81.99;97025.56;1780027;80;21032;-57
2022/04/06 04:39:32;;;;;;;21.27;10.23;;;;;;;7.35;81.90;97025.56;1705282;82;21530;-57
2022/04/06 04:41:59;;;;;;;8.83;6.03;;;;;;;7.38;82.01;97022.83;1769670;80;21001;-56
2022/04/06 04:44:26;;;;;;;7.22;5.78;;;;;;;7.39;81.92;97031.98;1748621;80;21002;-56
2022/04/06 04:46:53;;;;;;;6.33;5.20;;;;;;;7.40;81.93;97034.13;1743840;81;21426;-56
2022/04/06 04:49:20;;;;;;;7.62;4.97;;;;;;;7.44;81.91;97028.45;1753947;80;20994;-56
2022/04/06 04:51:47;;;;;;;8.30;6.33;;;;;;;7.47;81.76;97033.26;1743938;81;21002;-57
2022/04/06 04:54:13;;;;;;;8.78;6.15;;;;;;;7.48;81.72;97038.36;1743731;82;20978;-56
2022/04/06 04:56:42;;;;;;;9.68;4.45;;;;;;;7.55;81.81;97042.08;1743978;82;21061;-56
2022/04/06 04:59:09;;;;;;;7.15;5.12;;;;;;;7.62;81.72;97033.92;1743977;80;27648;-56
2022/04/06 05:01:36;;;;;;;5.83;4.60;;;;;;;7.70;81.71;97033.05;1759631;80;21455;-56
2022/04/06 05:04:03;;;;;;;8.58;5.70;;;;;;;7.75;81.64;97024.35;1748864;80;20955;-56
2022/04/06 05:06:30;;;;;;;11.35;6.65;;;;;;;7.80;81.56;97033.75;1743368;82;21006;-56
2022/04/06 05:08:57;;;;;;;12.75;9.70;;;;;;;7.88;81.45;97046.61;1754653;80;20971;-56
2022/04/06 05:11:24;;;;;;;6.37;4.37;;;;;;;7.95;81.33;97052.20;1744256;82;21016;-56
2022/04/06 05:13:51;;;;;;;12.03;8.48;;;;;;;8.06;81.00;97057.77;1743758;82;20962;-55
2022/04/06 05:16:18;;;;;;;18.50;12.88;;;;;;;8.09;80.95;97057.98;1744206;81;21396;-56
2022/04/06 05:18:45;;;;;;;13.22;9.10;;;;;;;8.17;80.76;97054.66;1749632;80;20974;-56
2022/04/06 05:21:12;;;;;;;15.23;8.78;;;;;;;8.23;80.58;97059.45;1746543;80;20978;-56
2022/04/06 05:23:39;;;;;;;8.40;5.97;;;;;;;8.30;80.54;97063.16;1743544;82;21290;-56
2022/04/06 05:26:06;;;;;;;7.50;5.72;;;;;;;8.34;80.05;97066.88;1743989;82;21043;-56
2022/04/06 05:28:33;;;;;;;18.92;13.68;;;;;;;8.42;79.85;97071.68;1744202;80;21031;-56
2022/04/06 05:31:00;;;;;;;11.12;5.67;;;;;;;8.44;80.01;97073.53;1744124;81;20989;-56
2022/04/06 05:33:27;;;;;;;11.55;5.28;;;;;;;8.47;79.96;97081.87;1718114;82;20985;-56
2022/04/06 05:35:54;;;;;;;8.28;5.55;;;;;;;8.57;79.55;97084.20;1759790;81;21283;-56
2022/04/06 05:38:21;;;;;;;9.70;5.97;;;;;;;8.58;79.49;97084.45;1744162;81;21051;-56
2022/04/06 05:40:48;;;;;;;7.05;5.53;;;;;;;8.54;79.54;97076.11;1756599;80;20951;-56
2022/04/06 05:43:14;;;;;;;11.43;7.67;;;;;;;8.58;79.55;97093.35;1764092;80;21014;-56
2022/04/06 05:45:41;;;;;;;12.45;8.65;;;;;;;8.63;79.56;97092.47;1743971;82;21412;-56
2022/04/06 05:48:09;;;;;;;11.20;7.28;;;;;;;8.70;79.56;97099.67;1743569;80;21310;-56
2022/04/06 05:50:37;;;;;;;8.23;6.70;;;;;;;8.78;79.27;97095.53;1745721;80;20986;-56
2022/04/06 05:53:03;;;;;;;9.10;6.15;;;;;;;8.80;79.21;97098.73;1748616;80;20947;-56
2022/04/06 05:55:30;;;;;;;9.53;7.70;;;;;;;8.87;79.13;97101.89;1751121;80;20977;-56
2022/04/06 05:57:57;;;;;;;9.30;6.35;;;;;;;8.85;79.05;97098.69;1738781;80;21014;-56
2022/04/06 06:00:24;;;;;;;11.68;10.45;;;;;;;8.84;79.08;97097.87;1755538;80;21060;-56
2022/04/06 06:02:51;;;;;;;12.53;10.55;;;;;;;8.83;79.05;97106.28;1743814;82;21391;-56
2022/04/06 06:05:18;;;;;;;10.08;7.22;;;;;;;8.85;79.12;97106.23;1762833;80;21013;-56
2022/04/06 06:07:45;;;;;;;10.98;9.20;;;;;;;8.90;79.04;97107.53;1746809;80;21049;-56
2022/04/06 06:10:12;;;;;;;9.38;7.85;;;;;;;9.02;79.04;97103.05;1760811;80;21017;-56
2022/04/06 06:12:39;;;;;;;9.03;5.95;;;;;;;9.09;78.94;97104.03;1761077;80;21349;-56
2022/04/06 06:15:07;;;;;;;7.87;5.97;;;;;;;9.16;78.51;97103.94;1748469;80;21381;-56
2022/04/06 06:17:39;;;;;;;19.15;11.53;;;;;;;9.24;78.31;97101.92;1745482;80;21770;-56
2022/04/06 06:20:06;;;;;;;7.33;4.92;;;;;;;9.26;78.43;97105.68;1745443;80;21427;-57
2022/04/06 06:22:33;;;;;;;7.30;5.58;;;;;;;9.40;78.13;97093.55;1751539;80;21002;-56
2022/04/06 06:25:01;;;;;;;8.75;6.08;;;;;;;9.56;77.89;97104.39;1747717;80;21454;-56
2022/04/06 06:27:27;;;;;;;8.05;5.45;;;;;;;9.56;77.89;97104.39;1744373;80;21016;-56
2022/04/06 06:29:54;;;;;;;5.83;4.75;;;;;;;9.85;77.77;97092.02;1745970;80;20988;-56
2022/04/06 06:32:21;;;;;;;7.00;5.95;;;;;;;10.09;77.27;97089.97;1742936;81;21515;-56
2022/04/06 06:34:48;;;;;;;11.68;8.88;;;;;;;10.21;75.29;97090.02;1750243;81;21005;-56
2022/04/06 06:37:15;;;;;;;8.90;6.85;;;;;;;10.27;75.18;97097.79;1744401;80;21286;-56
2022/04/06 06:39:42;;;;;;;8.43;6.12;;;;;;;10.53;73.93;97106.23;1742501;81;21092;-56
2022/04/06 06:42:09;;;;;;;7.95;6.28;;;;;;;10.74;72.60;97100.62;1746853;80;21076;-57
2022/04/06 06:44:36;;;;;;;6.50;4.58;;;;;;;10.84;73.39;97106.39;1748997;80;21016;-56
2022/04/06 06:47:04;;;;;;;6.80;4.90;;;;;;;10.97;72.22;97102.87;1747051;80;21004;-56
2022/04/06 06:49:31;;;;;;;8.53;5.00;;;;;;;11.13;71.51;97107.96;1710640;82;21021;-56
2022/04/06 06:51:58;;;;;;;7.85;5.78;;;;;;;11.27;71.03;97110.06;1747307;80;21176;-57
2022/04/06 06:54:25;;;;;;;5.85;4.37;;;;;;;11.36;71.50;97117.72;1748133;80;21018;-56
2022/04/06 06:56:51;;;;;;;5.50;4.47;;;;;;;11.57;71.46;97114.80;1748521;80;21951;-57
2022/04/06 06:59:18;;;;;;;10.32;6.72;;;;;;;11.56;71.25;97106.97;1756976;80;21050;-57
2022/04/06 07:01:45;;;;;;;5.37;4.55;;;;;;;11.54;70.16;97118.69;1760847;80;20966;-56
2022/04/06 07:04:12;;;;;;;6.47;4.65;;;;;;;11.73;70.91;97108.45;1758259;80;21592;-56
2022/04/06 07:06:39;;;;;;;4.28;3.55;;;;;;;12.19;70.19;97110.02;1743565;82;20989;-56
2022/04/06 07:09:06;;;;;;;4.37;3.83;;;;;;;11.93;67.95;97115.30;1748319;80;21036;-57
2022/04/06 07:11:33;;;;;;;4.67;3.80;;;;;;;11.72;68.80;97112.83;1745325;80;21116;-57
2022/04/06 07:14:00;;;;;;;6.10;4.65;;;;;;;11.69;68.77;97115.59;1757034;80;21616;-57
2022/04/06 07:16:27;;;;;;;4.47;3.70;;;;;;;11.58;69.22;97132.67;1759734;80;21025;-57
2022/04/06 07:18:53;;;;;;;6.35;4.47;;;;;;;11.56;69.16;97125.96;1743917;80;21043;-57
2022/04/06 07:21:20;;;;;;;6.70;4.62;;;;;;;11.54;69.21;97130.34;1749517;80;20954;-57
2022/04/06 07:23:47;;;;;;;10.30;6.65;;;;;;;11.41;69.12;97133.89;1746046;80;22125;-56
2022/04/06 07:26:16;;;;;;;9.30;6.35;;;;;;;11.36;69.64;97133.99;1755532;80;21053;-57
2022/04/06 07:28:45;;;;;;;6.85;5.22;;;;;;;11.24;69.73;97144.03;1753206;80;21029;-56
2022/04/06 07:31:12;;;;;;;6.95;4.00;;;;;;;11.19;70.04;97139.26;1764373;80;21418;-57
2022/04/06 07:33:40;;;;;;;7.35;5.70;;;;;;;11.14;70.31;97142.09;1754336;80;21037;-57
2022/04/06 07:36:07;;;;;;;6.75;4.65;;;;;;;11.19;70.47;97150.10;1753657;80;21446;-56
2022/04/06 07:38:34;;;;;;;5.83;4.40;;;;;;;11.17;69.67;97142.28;1756514;80;21187;-56
2022/04/06 07:41:01;;;;;;;5.80;4.53;;;;;;;11.23;69.96;97149.20;1760906;80;20991;-56
2022/04/06 07:43:28;;;;;;;5.50;4.03;;;;;;;11.80;68.51;97133.28;1753679;80;21057;-56
2022/04/06 07:45:55;;;;;;;5.75;4.35;;;;;;;12.07;68.45;97135.61;1748720;80;21412;-57
2022/04/06 07:48:25;;;;;;;7.53;6.28;;;;;;;12.18;67.47;97149.16;1754164;80;21025;-56
2022/04/06 07:50:51;;;;;;;7.97;6.58;;;;;;;12.03;68.30;97144.91;1748084;81;22043;-56
2022/04/06 07:53:18;;;;;;;5.67;4.60;;;;;;;13.09;67.79;97151.86;1751425;80;21513;-56
2022/04/06 07:55:46;;;;;;;7.12;5.85;;;;;;;13.49;66.30;97158.81;1755387;80;20997;-55
2022/04/06 07:58:13;;;;;;;10.78;6.90;;;;;;;13.18;65.66;97160.27;1747104;80;21057;-57
2022/04/06 08:00:40;;;;;;;8.15;5.83;;;;;;;12.78;66.23;97170.39;1751113;80;21057;-57
2022/04/06 08:03:07;;;;;;;7.95;5.50;;;;;;;12.61;66.90;97162.16;1762765;80;22256;-57
2022/04/06 08:05:35;;;;;;;6.25;5.58;;;;;;;12.80;67.24;97168.70;1747476;80;21471;-56
2022/04/06 08:08:02;;;;;;;6.22;4.75;;;;;;;14.07;65.81;97168.97;1749751;80;21020;-57
2022/04/06 08:10:30;;;;;;;6.97;6.12;;;;;;;15.34;62.75;97172.70;1753120;80;21026;-57
2022/04/06 08:12:58;;;;;;;5.78;4.33;;;;;;;16.33;61.63;97161.16;1749034;80;47202;-57
2022/04/06 08:15:25;;;;;;;13.83;5.67;;;;;;;17.27;58.84;97165.27;1757168;80;21050;-57
2022/04/06 08:17:52;;;;;;;5.83;4.28;;;;;;;17.42;58.23;97156.89;1744893;80;21048;-57
2022/04/06 08:20:19;;;;;;;7.70;5.58;;;;;;;18.42;55.41;97161.16;1751114;80;21053;-58
2022/04/06 08:22:47;;;;;;;5.40;4.62;;;;;;;18.44;53.00;97151.42;1747969;80;22983;-57
2022/04/06 08:25:17;;;;;;;8.00;5.67;;;;;;;16.87;54.45;97154.20;1757605;80;21474;-57
2022/04/06 08:27:44;;;;;;;5.72;4.35;;;;;;;16.39;54.61;97153.52;1755186;80;21869;-56
2022/04/06 08:30:12;;;;;;;5.67;4.67;;;;;;;15.39;56.49;97151.24;1747125;80;21001;-57
2022/04/06 08:32:39;;;;;;;6.95;5.42;;;;;;;14.66;58.26;97152.82;1755947;80;21017;-56
2022/04/06 08:35:08;;;;;;;5.47;4.35;;;;;;;14.16;59.56;97148.53;1758605;80;21450;-56
2022/04/06 08:37:38;;;;;;;5.70;4.37;;;;;;;13.76;60.92;97155.56;1759680;80;21061;-56
2022/04/06 08:40:12;;;;;;;5.20;4.35;;;;;;;13.57;61.97;97150.41;1751625;80;21155;-56
2022/04/06 08:42:39;;;;;;;5.30;4.20;;;;;;;13.10;63.25;97161.61;1743720;80;21053;-56
2022/04/06 08:45:07;;;;;;;4.42;3.10;;;;;;;12.96;64.01;97163.89;1741013;80;21029;-56
2022/04/06 08:47:34;;;;;;;8.13;5.47;;;;;;;12.74;64.63;97161.27;1738560;80;21518;-57
2022/04/06 08:50:04;;;;;;;4.72;4.03;;;;;;;12.45;65.66;97171.27;1741625;80;21329;-57
2022/04/06 08:52:32;;;;;;;6.70;4.97;;;;;;;12.39;66.01;97171.98;1752231;80;21032;-57
2022/04/06 08:54:59;;;;;;;8.40;5.40;;;;;;;12.36;66.84;97165.80;1749209;80;21041;-57
2022/04/06 08:57:27;;;;;;;8.10;5.55;;;;;;;12.30;66.86;97171.11;1740329;80;21091;-57
2022/04/06 08:59:54;;;;;;;8.10;5.83;;;;;;;12.68;67.31;97172.83;1744481;81;21093;-57
2022/04/06 09:02:22;;;;;;;9.80;6.55;;;;;;;13.37;66.49;97177.70;1763385;80;21071;-56
2022/04/06 09:04:53;;;;;;;8.93;5.85;;;;;;;14.97;63.95;97176.28;1764240;80;21747;-57
2022/04/06 09:07:23;;;;;;;6.12;5.30;;;;;;;15.53;62.55;97174.41;1745790;80;21529;-57
2022/04/06 09:09:53;;;;;;;10.05;8.90;;;;;;;15.51;60.12;97165.75;1759527;80;21088;-56
2022/04/06 09:12:22;;;;;;;8.13;7.33;;;;;;;14.64;61.66;97165.42;1745065;80;21055;-56
2022/04/06 09:15:08;;;;;;;5.03;4.50;;;;;;;14.09;62.59;97162.07;1736145;80;21104;-57
2022/04/06 09:17:45;;;;;;;4.65;4.15;;;;;;;13.98;62.77;97166.26;1739014;80;21545;-56
2022/04/06 09:20:13;;;;;;;5.10;3.72;;;;;;;14.17;62.66;97171.92;1751144;80;21045;-57
2022/04/06 09:22:41;;;;;;;8.55;7.75;;;;;;;14.39;62.67;97167.64;1760245;80;21013;-57
2022/04/06 09:25:09;;;;;;;8.50;7.42;;;;;;;14.04;63.37;97169.06;1746309;80;21014;-57
2022/04/06 09:27:39;;;;;;;5.30;4.67;;;;;;;13.93;63.61;97162.89;1746635;80;20990;-57
2022/04/06 09:30:07;;;;;;;5.72;3.60;;;;;;;14.03;63.40;97163.38;1746410;80;21049;-57
2022/04/06 09:32:34;;;;;;;5.87;4.33;;;;;;;13.88;63.90;97163.07;1737879;80;21064;-57
2022/04/06 09:35:01;;;;;;;5.72;5.12;;;;;;;13.64;64.88;97152.09;1763438;80;21029;-57
2022/04/06 09:37:30;;;;;;;5.83;5.00;;;;;;;13.79;64.98;97160.35;1762218;80;21021;-57
2022/04/06 09:40:09;;;;;;;14.63;10.72;;;;;;;13.65;64.32;97158.34;1761334;80;20997;-57
2022/04/06 09:42:36;;;;;;;10.53;7.12;;;;;;;13.39;65.03;97156.97;1752294;80;21040;-56
2022/04/06 09:47:58;;;;;;;13.30;9.98;;;;;;;13.07;65.66;97154.87;1702813;81;21549;-56
2022/04/06 09:50:26;;;;;;;5.10;3.72;;;;;;;12.99;66.33;97152.95;1740999;80;21021;-57
2022/04/06 09:52:57;;;;;;;7.10;5.78;;;;;;;12.97;66.58;97151.09;1763021;80;21403;-57
2022/04/06 09:55:23;;;;;;;8.23;6.50;;;;;;;13.01;66.48;97143.92;1752391;80;21505;-56
2022/04/06 09:57:53;;;;;;;8.15;5.78;;;;;;;13.36;66.41;97143.45;1750837;80;21042;-56
2022/04/06 10:00:22;;;;;;;5.78;4.28;;;;;;;13.67;65.72;97137.87;1755894;80;21854;-56
2022/04/06 10:03:04;;;;;;;4.78;3.62;;;;;;;13.91;64.56;97128.37;1744875;80;21064;-57
2022/04/06 10:05:31;;;;;;;4.55;3.75;;;;;;;14.12;64.14;97117.06;1750054;80;21097;-57
2022/04/06 10:08:07;;;;;;;4.28;3.17;;;;;;;14.37;63.11;97108.58;1714107;82;21767;-56
2022/04/06 10:10:38;;;;;;;4.47;3.42;;;;;;;14.65;63.08;97107.60;1750811;80;21159;-57
2022/04/06 10:13:05;;;;;;;6.03;3.85;;;;;;;14.92;61.98;97100.31;1762837;80;21017;-57
2022/04/06 10:15:32;;;;;;;10.68;8.03;;;;;;;15.11;61.04;97103.17;1751508;80;21053;-56
2022/04/06 10:18:00;;;;;;;13.43;10.13;;;;;;;15.13;60.16;97100.94;1756409;80;20986;-57
2022/04/06 10:20:48;;;;;;;15.20;3.83;;;;;;;15.29;59.60;97088.84;1761788;80;21609;-56
2022/04/06 10:23:49;;;;;;;9.55;7.08;;;;;;;15.47;59.01;97097.95;1728134;80;21045;-57
2022/04/06 10:26:39;;;;;;;8.15;4.42;;;;;;;15.53;58.36;97086.24;1747314;80;21052;-57
2022/04/06 10:29:06;;;;;;;11.50;10.50;;;;;;;15.54;57.82;97094.66;1742351;80;20947;-56
2022/04/06 10:31:33;;;;;;;6.37;5.15;;;;;;;15.45;56.34;97089.84;1757865;80;21107;-56
2022/04/06 10:34:24;;;;;;;4.47;3.92;;;;;;;15.57;57.08;97096.74;1762046;80;22307;-57
2022/04/06 10:37:12;;;;;;;2.62;1.90;;;;;;;15.60;55.94;97099.36;1762883;80;21042;-56
2022/04/06 10:39:57;;;;;;;2.17;1.70;;;;;;;15.50;56.48;97100.57;1763048;80;21034;-57
2022/04/06 10:42:35;;;;;;;5.45;4.97;;;;;;;15.56;56.27;97105.27;1757122;79;21044;-57
2022/04/06 10:45:05;;;;;;;2.95;1.80;;;;;;;15.37;56.29;97107.88;1744343;80;21073;-57
2022/04/06 10:47:32;;;;;;;4.37;3.65;;;;;;;15.25;56.55;97099.63;1736067;80;21054;-57
2022/04/06 10:50:19;;;;;;;3.62;2.40;;;;;;;15.26;56.84;97097.13;1761591;80;21123;-57
2022/04/06 10:52:46;;;;;;;14.25;7.03;;;;;;;15.08;56.31;97099.19;1761890;80;21189;-56
2022/04/06 10:55:23;;;;;;;34.10;17.10;;;;;;;14.97;56.71;97108.09;1767073;80;21414;-56
2022/04/06 10:57:56;;;;;;;10.32;6.85;;;;;;;14.81;57.49;97107.28;1753742;80;20978;-57
2022/04/06 11:00:25;;;;;;;2.67;1.90;;;;;;;15.01;56.85;97124.81;1748437;80;21040;-57
2022/04/06 11:02:52;;;;;;;;;;;;;;;15.14;56.56;97117.53;1756170;80;21482;-57
2022/04/06 11:05:49;;;;;;;6.25;2.30;;;;;;;15.01;56.50;97119.36;1746174;80;20209;-57
2022/04/06 11:11:45;;;;;;;3.30;1.87;;;;;;;15.19;56.28;97111.86;1761621;80;21705;-57
2022/04/06 11:14:26;;;;;;;3.62;2.42;;;;;;;15.37;56.03;97113.34;1761348;80;21477;-57
2022/04/06 11:16:53;;;;;;;9.53;3.87;;;;;;;15.37;55.38;97109.81;1758911;80;21486;-57
2022/04/06 11:19:20;;;;;;;3.80;2.42;;;;;;;15.30;56.31;97115.02;1762131;80;20982;-57
2022/04/06 11:21:52;;;;;;;2.33;1.70;;;;;;;15.51;55.74;97108.42;1741104;82;21338;-57
2022/04/06 11:24:27;;;;;;;2.80;1.75;;;;;;;15.56;55.61;97099.81;1753278;80;21025;-57
2022/04/06 11:26:54;;;;;;;4.00;1.57;;;;;;;15.70;55.01;97103.88;1747886;80;21393;-57
2022/04/06 11:29:26;;;;;;;6.80;2.00;;;;;;;15.82;54.52;97090.84;1765037;80;21585;-57
2022/04/06 11:32:04;;;;;;;2.10;1.45;;;;;;;15.86;53.07;97091.77;1762716;80;21533;-57
2022/04/06 11:34:40;;;;;;;6.22;1.70;;;;;;;15.84;53.98;97095.97;1760676;80;20985;-57
2022/04/06 11:37:08;;;;;;;4.45;2.05;;;;;;;15.95;54.47;97093.84;1762336;80;21198;-57
2022/04/06 11:39:36;;;;;;;8.23;1.60;;;;;;;16.14;53.75;97089.79;1754290;80;21033;-57
2022/04/06 11:42:05;;;;;;;2.72;1.80;;;;;;;16.11;53.04;97080.91;1753954;80;20977;-57
2022/04/06 11:44:33;;;;;;;3.42;1.85;;;;;;;15.96;53.10;97079.61;1757004;80;21033;-57
2022/04/06 11:47:00;;;;;;;2.45;1.98;;;;;;;16.15;53.54;97087.28;1755105;80;21108;-56
2022/04/06 11:49:29;;;;;;;2.00;1.37;;;;;;;16.16;52.67;97083.44;1750191;80;20994;-57
2022/04/06 11:51:59;;;;;;;6.40;2.02;;;;;;;16.17;52.17;97080.36;1741444;82;21016;-57
2022/04/06 11:54:27;;;;;;;2.70;1.80;;;;;;;16.06;52.60;97084.10;1743113;80;20993;-57